sensor_id;sensor_type;location;lat;lon;timestamp;pressure;altitude;pressure_sealevel;temperature;humidity
60897;BME280;46749;32.932;-117.130;2023-03-20T00:01:50;100587.47;;;15.15;64.49
60897;BME280;46749;32.932;-117.130;2023-03-20T00:04:16;100578.72;;;15.15;64.23
60897;BME280;46749;32.932;-117.130;2023-03-20T00:06:42;100569.97;;;15.13;64.12
60897;BME280;46749;32.932;-117.130;2023-03-20T00:09:09;100583.06;;;15.14;64.35
60897;BME280;46749;32.932;-117.130;2023-03-20T00:11:43;100578.69;;;15.13;64.36
60897;BME280;46749;32.932;-117.130;2023-03-20T00:14:12;100577.84;;;15.14;64.23
60897;BME280;46749;32.932;-117.130;2023-03-20T00:16:42;100586.63;;;15.16;64.39
60897;BME280;46749;32.932;-117.130;2023-03-20T00:21:43;100593.53;;;15.14;64.16
60897;BME280;46749;32.932;-117.130;2023-03-20T00:24:11;100596.13;;;15.13;64.43
60897;BME280;46749;32.932;-117.130;2023-03-20T00:26:38;100606.59;;;15.13;64.11
60897;BME280;46749;32.932;-117.130;2023-03-20T00:29:06;100610.09;;;15.13;64.18
60897;BME280;46749;32.932;-117.130;2023-03-20T00:31:37;100610.06;;;15.11;64.31
60897;BME280;46749;32.932;-117.130;2023-03-20T00:34:09;100611.81;;;15.11;64.51
60897;BME280;46749;32.932;-117.130;2023-03-20T00:36:36;100610.06;;;15.11;64.22
60897;BME280;46749;32.932;-117.130;2023-03-20T00:39:03;100617.94;;;15.11;64.29
60897;BME280;46749;32.932;-117.130;2023-03-20T00:41:31;100602.22;;;15.10;64.04
60897;BME280;46749;32.932;-117.130;2023-03-20T00:46:39;100585.66;;;15.11;64.32
60897;BME280;46749;32.932;-117.130;2023-03-20T00:49:07;100569.09;;;15.10;64.24
60897;BME280;46749;32.932;-117.130;2023-03-20T00:51:34;100576.94;;;15.10;64.21
60897;BME280;46749;32.932;-117.130;2023-03-20T00:54:14;100571.69;;;15.10;64.05
60897;BME280;46749;32.932;-117.130;2023-03-20T01:02:58;100603.97;;;15.11;64.11
60897;BME280;46749;32.932;-117.130;2023-03-20T01:05:26;100598.72;;;15.09;64.12
60897;BME280;46749;32.932;-117.130;2023-03-20T01:07:54;100605.69;;;15.09;64.16
60897;BME280;46749;32.932;-117.130;2023-03-20T01:10:23;100610.03;;;15.08;64.16
60897;BME280;46749;32.932;-117.130;2023-03-20T01:12:52;100611.75;;;15.08;64.24
60897;BME280;46749;32.932;-117.130;2023-03-20T01:15:29;100624.81;;;15.08;64.21
60897;BME280;46749;32.932;-117.130;2023-03-20T01:17:56;100615.28;;;15.08;64.27
60897;BME280;46749;32.932;-117.130;2023-03-20T01:20:25;100622.22;;;15.08;64.06
60897;BME280;46749;32.932;-117.130;2023-03-20T01:22:52;100630.06;;;15.08;64.04
60897;BME280;46749;32.932;-117.130;2023-03-20T01:25:19;100622.22;;;15.08;64.10
60897;BME280;46749;32.932;-117.130;2023-03-20T01:27:49;100637.91;;;15.08;64.08
60897;BME280;46749;32.932;-117.130;2023-03-20T01:30:25;100629.19;;;15.07;63.96
60897;BME280;46749;32.932;-117.130;2023-03-20T01:32:52;100628.31;;;15.07;64.05
60897;BME280;46749;32.932;-117.130;2023-03-20T01:35:25;100643.13;;;15.06;64.05
60897;BME280;46749;32.932;-117.130;2023-03-20T01:37:54;100646.59;;;15.07;64.01
60897;BME280;46749;32.932;-117.130;2023-03-20T01:40:33;100644.00;;;15.07;63.89
60897;BME280;46749;32.932;-117.130;2023-03-20T01:43:04;100644.00;;;15.07;64.05
60897;BME280;46749;32.932;-117.130;2023-03-20T01:45:35;100637.88;;;15.05;64.12
60897;BME280;46749;32.932;-117.130;2023-03-20T01:48:14;100656.19;;;15.05;64.12
60897;BME280;46749;32.932;-117.130;2023-03-20T01:50:41;100640.50;;;15.05;63.94
60897;BME280;46749;32.932;-117.130;2023-03-20T01:53:22;100630.03;;;15.05;64.19
60897;BME280;46749;32.932;-117.130;2023-03-20T01:55:52;100634.41;;;15.06;64.05
60897;BME280;46749;32.932;-117.130;2023-03-20T01:58:27;100635.25;;;15.05;64.15
60897;BME280;46749;32.932;-117.130;2023-03-20T02:00:56;100635.25;;;15.05;63.90
60897;BME280;46749;32.932;-117.130;2023-03-20T02:03:23;100632.63;;;15.05;64.06
60897;BME280;46749;32.932;-117.130;2023-03-20T02:05:50;100622.19;;;15.05;64.04
60897;BME280;46749;32.932;-117.130;2023-03-20T02:08:24;100641.34;;;15.04;63.82
60897;BME280;46749;32.932;-117.130;2023-03-20T02:10:53;100642.22;;;15.03;63.81
60897;BME280;46749;32.932;-117.130;2023-03-20T02:13:21;100650.06;;;15.03;63.99
60897;BME280;46749;32.932;-117.130;2023-03-20T02:18:28;100655.28;;;15.03;63.97
60897;BME280;46749;32.932;-117.130;2023-03-20T02:24:21;100662.25;;;15.02;64.01
60897;BME280;46749;32.932;-117.130;2023-03-20T02:29:44;100669.19;;;15.02;64.12
60897;BME280;46749;32.932;-117.130;2023-03-20T02:43:27;100703.19;;;15.02;64.15
60897;BME280;46749;32.932;-117.130;2023-03-20T03:00:08;100707.50;;;14.98;63.92
60897;BME280;46749;32.932;-117.130;2023-03-20T03:02:46;100708.38;;;14.99;64.12
60897;BME280;46749;32.932;-117.130;2023-03-20T03:05:22;100705.75;;;14.99;63.95
60897;BME280;46749;32.932;-117.130;2023-03-20T03:07:53;100711.88;;;14.99;63.94
60897;BME280;46749;32.932;-117.130;2023-03-20T03:10:23;100719.69;;;14.98;63.98
60897;BME280;46749;32.932;-117.130;2023-03-20T03:12:53;100721.47;;;14.99;63.96
60897;BME280;46749;32.932;-117.130;2023-03-20T03:15:26;100722.31;;;14.98;63.96
60897;BME280;46749;32.932;-117.130;2023-03-20T03:17:54;100720.56;;;14.97;63.83
60897;BME280;46749;32.932;-117.130;2023-03-20T03:20:30;100719.69;;;14.96;63.84
60897;BME280;46749;32.932;-117.130;2023-03-20T03:22:58;100724.94;;;14.98;63.94
60897;BME280;46749;32.932;-117.130;2023-03-20T03:25:37;100733.63;;;14.97;63.76
60897;BME280;46749;32.932;-117.130;2023-03-20T03:30:39;100730.13;;;14.96;63.72
60897;BME280;46749;32.932;-117.130;2023-03-20T03:33:18;100734.47;;;14.96;63.96
60897;BME280;46749;32.932;-117.130;2023-03-20T03:35:47;100747.53;;;14.96;63.84
60897;BME280;46749;32.932;-117.130;2023-03-20T03:41:42;100759.72;;;14.95;63.81
60897;BME280;46749;32.932;-117.130;2023-03-20T03:49:48;100779.78;;;14.95;63.63
60897;BME280;46749;32.932;-117.130;2023-03-20T03:52:33;100767.56;;;14.94;63.61
60897;BME280;46749;32.932;-117.130;2023-03-20T03:55:07;100755.34;;;14.93;63.77
60897;BME280;46749;32.932;-117.130;2023-03-20T03:57:51;100757.94;;;14.93;63.92
60897;BME280;46749;32.932;-117.130;2023-03-20T04:00:22;100760.59;;;14.94;63.65
60897;BME280;46749;32.932;-117.130;2023-03-20T04:02:53;100742.25;;;14.93;63.54
60897;BME280;46749;32.932;-117.130;2023-03-20T04:05:20;100759.72;;;14.94;63.95
60897;BME280;46749;32.932;-117.130;2023-03-20T04:07:53;100764.03;;;14.92;63.46
60897;BME280;46749;32.932;-117.130;2023-03-20T04:10:20;100771.88;;;14.92;63.85
60897;BME280;46749;32.932;-117.130;2023-03-20T04:12:46;100768.38;;;14.91;63.50
60897;BME280;46749;32.932;-117.130;2023-03-20T04:15:14;100773.63;;;14.91;63.70
60897;BME280;46749;32.932;-117.130;2023-03-20T04:17:41;100776.22;;;14.90;63.64
60897;BME280;46749;32.932;-117.130;2023-03-20T04:20:09;100780.59;;;14.91;63.75
60897;BME280;46749;32.932;-117.130;2023-03-20T04:22:36;100794.53;;;14.90;63.78
60897;BME280;46749;32.932;-117.130;2023-03-20T04:25:03;100782.31;;;14.90;64.09
60897;BME280;46749;32.932;-117.130;2023-03-20T04:27:30;100789.28;;;14.90;63.97
60897;BME280;46749;32.932;-117.130;2023-03-20T04:29:56;100812.81;;;14.90;63.90
60897;BME280;46749;32.932;-117.130;2023-03-20T04:32:23;100818.88;;;14.89;63.66
60897;BME280;46749;32.932;-117.130;2023-03-20T04:34:49;100832.84;;;14.89;63.80
60897;BME280;46749;32.932;-117.130;2023-03-20T04:37:17;100838.91;;;14.88;63.53
60897;BME280;46749;32.932;-117.130;2023-03-20T04:39:43;100847.66;;;14.89;63.83
60897;BME280;46749;32.932;-117.130;2023-03-20T04:42:10;100856.34;;;14.88;63.95
60897;BME280;46749;32.932;-117.130;2023-03-20T04:44:36;100854.59;;;14.88;63.72
60897;BME280;46749;32.932;-117.130;2023-03-20T04:47:02;100848.53;;;14.89;63.62
60897;BME280;46749;32.932;-117.130;2023-03-20T04:49:28;100852.88;;;14.89;63.55
60897;BME280;46749;32.932;-117.130;2023-03-20T04:51:55;100868.63;;;14.90;63.66
60897;BME280;46749;32.932;-117.130;2023-03-20T04:54:21;100873.78;;;14.89;63.55
60897;BME280;46749;32.932;-117.130;2023-03-20T04:56:47;100878.19;;;14.90;63.81
60897;BME280;46749;32.932;-117.130;2023-03-20T04:59:13;100881.63;;;14.89;63.68
60897;BME280;46749;32.932;-117.130;2023-03-20T05:01:40;100879.88;;;14.88;63.91
60897;BME280;46749;32.932;-117.130;2023-03-20T05:04:06;100881.63;;;14.87;63.69
60897;BME280;46749;32.932;-117.130;2023-03-20T05:06:32;100885.97;;;14.87;63.68
60897;BME280;46749;32.932;-117.130;2023-03-20T05:08:59;100896.44;;;14.87;63.57
60897;BME280;46749;32.932;-117.130;2023-03-20T05:11:26;100885.97;;;14.87;63.57
60897;BME280;46749;32.932;-117.130;2023-03-20T05:13:53;100892.94;;;14.86;63.68
60897;BME280;46749;32.932;-117.130;2023-03-20T05:16:19;100895.53;;;14.86;63.57
60897;BME280;46749;32.932;-117.130;2023-03-20T05:18:46;100901.66;;;14.87;63.71
60897;BME280;46749;32.932;-117.130;2023-03-20T05:21:12;100911.22;;;14.86;63.70
60897;BME280;46749;32.932;-117.130;2023-03-20T05:23:38;100900.78;;;14.86;63.58
60897;BME280;46749;32.932;-117.130;2023-03-20T05:26:05;100906.00;;;14.86;63.60
60897;BME280;46749;32.932;-117.130;2023-03-20T05:28:32;100904.25;;;14.85;63.84
60897;BME280;46749;32.932;-117.130;2023-03-20T05:30:58;100905.97;;;14.84;63.49
60897;BME280;46749;32.932;-117.130;2023-03-20T05:33:24;100900.75;;;14.84;63.55
60897;BME280;46749;32.932;-117.130;2023-03-20T05:35:50;100893.78;;;14.85;63.66
60897;BME280;46749;32.932;-117.130;2023-03-20T05:38:17;100891.16;;;14.83;63.59
60897;BME280;46749;32.932;-117.130;2023-03-20T05:40:48;100898.06;;;14.83;63.56
60897;BME280;46749;32.932;-117.130;2023-03-20T05:43:14;100907.66;;;14.82;63.76
60897;BME280;46749;32.932;-117.130;2023-03-20T05:45:41;100911.16;;;14.83;63.60
60897;BME280;46749;32.932;-117.130;2023-03-20T05:48:08;100907.66;;;14.82;63.92
60897;BME280;46749;32.932;-117.130;2023-03-20T05:50:34;100896.31;;;14.82;63.63
60897;BME280;46749;32.932;-117.130;2023-03-20T05:53:01;100896.31;;;14.82;63.80
60897;BME280;46749;32.932;-117.130;2023-03-20T05:55:27;100903.28;;;14.81;63.71
60897;BME280;46749;32.932;-117.130;2023-03-20T05:57:53;100909.38;;;14.82;63.71
60897;BME280;46749;32.932;-117.130;2023-03-20T06:00:20;100905.00;;;14.79;63.56
60897;BME280;46749;32.932;-117.130;2023-03-20T06:02:46;100904.13;;;14.80;63.66
60897;BME280;46749;32.932;-117.130;2023-03-20T06:05:12;100908.50;;;14.81;63.92
60897;BME280;46749;32.932;-117.130;2023-03-20T06:07:39;100906.75;;;14.80;63.48
60897;BME280;46749;32.932;-117.130;2023-03-20T06:10:05;100910.22;;;14.79;63.68
60897;BME280;46749;32.932;-117.130;2023-03-20T06:12:32;100905.84;;;14.78;63.59
60897;BME280;46749;32.932;-117.130;2023-03-20T06:14:58;100898.88;;;14.79;63.77
60897;BME280;46749;32.932;-117.130;2023-03-20T06:17:25;100904.09;;;14.77;63.70
60897;BME280;46749;32.932;-117.130;2023-03-20T06:19:51;100913.69;;;14.78;63.75
60897;BME280;46749;32.932;-117.130;2023-03-20T06:22:18;100911.94;;;14.77;63.70
60897;BME280;46749;32.932;-117.130;2023-03-20T06:24:44;100915.41;;;14.78;63.72
60897;BME280;46749;32.932;-117.130;2023-03-20T06:27:31;100921.53;;;14.78;63.78
60897;BME280;46749;32.932;-117.130;2023-03-20T06:29:57;100931.09;;;14.78;63.67
60897;BME280;46749;32.932;-117.130;2023-03-20T06:32:23;100937.16;;;14.77;63.55
60897;BME280;46749;32.932;-117.130;2023-03-20T06:34:49;100934.53;;;14.77;63.82
60897;BME280;46749;32.932;-117.130;2023-03-20T06:37:15;100929.31;;;14.77;63.59
60897;BME280;46749;32.932;-117.130;2023-03-20T06:39:42;100937.16;;;14.77;63.82
60897;BME280;46749;32.932;-117.130;2023-03-20T06:42:08;100923.22;;;14.76;63.69
60897;BME280;46749;32.932;-117.130;2023-03-20T06:44:34;100931.03;;;14.76;63.90
60897;BME280;46749;32.932;-117.130;2023-03-20T06:47:00;100931.03;;;14.76;63.51
60897;BME280;46749;32.932;-117.130;2023-03-20T06:49:26;100928.41;;;14.75;63.73
60897;BME280;46749;32.932;-117.130;2023-03-20T06:51:53;100932.75;;;14.74;63.52
60897;BME280;46749;32.932;-117.130;2023-03-20T06:54:19;100931.91;;;14.75;63.77
60897;BME280;46749;32.932;-117.130;2023-03-20T06:56:45;100937.97;;;14.74;63.88
60897;BME280;46749;32.932;-117.130;2023-03-20T06:59:11;100944.97;;;14.75;63.50
60897;BME280;46749;32.932;-117.130;2023-03-20T07:01:38;100950.19;;;14.75;63.69
60897;BME280;46749;32.932;-117.130;2023-03-20T07:04:05;100944.94;;;14.74;63.84
60897;BME280;46749;32.932;-117.130;2023-03-20T07:06:31;100946.69;;;14.73;63.66
60897;BME280;46749;32.932;-117.130;2023-03-20T07:08:58;100954.53;;;14.73;63.73
60897;BME280;46749;32.932;-117.130;2023-03-20T07:11:24;100949.28;;;14.73;63.74
60897;BME280;46749;32.932;-117.130;2023-03-20T07:13:50;100947.56;;;14.74;63.62
60897;BME280;46749;32.932;-117.130;2023-03-20T07:16:16;100944.91;;;14.72;63.65
60897;BME280;46749;32.932;-117.130;2023-03-20T07:18:43;100944.91;;;14.72;63.77
60897;BME280;46749;32.932;-117.130;2023-03-20T07:21:16;100965.84;;;14.72;63.73
60897;BME280;46749;32.932;-117.130;2023-03-20T07:23:43;100971.94;;;14.73;63.59
60897;BME280;46749;32.932;-117.130;2023-03-20T07:26:10;100985.88;;;14.72;63.73
60897;BME280;46749;32.932;-117.130;2023-03-20T07:28:36;100991.09;;;14.72;63.77
60897;BME280;46749;32.932;-117.130;2023-03-20T07:31:03;100982.38;;;14.71;63.46
60897;BME280;46749;32.932;-117.130;2023-03-20T07:33:29;100976.19;;;14.69;63.67
60897;BME280;46749;32.932;-117.130;2023-03-20T07:35:55;100971.84;;;14.70;63.54
60897;BME280;46749;32.932;-117.130;2023-03-20T07:38:22;100956.16;;;14.70;63.99
60897;BME280;46749;32.932;-117.130;2023-03-20T07:40:48;100952.69;;;14.69;63.44
60897;BME280;46749;32.932;-117.130;2023-03-20T07:43:15;100963.13;;;14.69;63.71
60897;BME280;46749;32.932;-117.130;2023-03-20T07:45:42;100953.53;;;14.68;63.85
60897;BME280;46749;32.932;-117.130;2023-03-20T07:48:08;100953.53;;;14.68;63.62
60897;BME280;46749;32.932;-117.130;2023-03-20T07:50:35;100962.22;;;14.67;63.72
60897;BME280;46749;32.932;-117.130;2023-03-20T07:53:01;100967.44;;;14.67;63.76
60897;BME280;46749;32.932;-117.130;2023-03-20T07:55:28;100990.13;;;14.68;63.73
60897;BME280;46749;32.932;-117.130;2023-03-20T07:57:54;100978.78;;;14.68;63.60
60897;BME280;46749;32.932;-117.130;2023-03-20T08:00:20;100977.03;;;14.67;63.93
60897;BME280;46749;32.932;-117.130;2023-03-20T08:02:46;100984.88;;;14.67;63.64
60897;BME280;46749;32.932;-117.130;2023-03-20T08:05:13;100970.06;;;14.67;63.70
60897;BME280;46749;32.932;-117.130;2023-03-20T08:07:39;100972.69;;;14.67;63.79
60897;BME280;46749;32.932;-117.130;2023-03-20T08:10:05;100973.56;;;14.68;63.65
60897;BME280;46749;32.932;-117.130;2023-03-20T08:12:32;100982.25;;;14.67;63.73
60897;BME280;46749;32.932;-117.130;2023-03-20T08:14:58;100986.59;;;14.66;63.69
60897;BME280;46749;32.932;-117.130;2023-03-20T08:17:24;100986.59;;;14.66;63.72
60897;BME280;46749;32.932;-117.130;2023-03-20T08:19:50;100989.22;;;14.66;63.70
60897;BME280;46749;32.932;-117.130;2023-03-20T08:22:17;100990.88;;;14.64;63.44
60897;BME280;46749;32.932;-117.130;2023-03-20T08:24:43;100986.50;;;14.63;63.73
60897;BME280;46749;32.932;-117.130;2023-03-20T08:27:10;100982.16;;;14.64;63.64
60897;BME280;46749;32.932;-117.130;2023-03-20T08:29:36;100979.56;;;14.64;63.56
60897;BME280;46749;32.932;-117.130;2023-03-20T08:32:02;100983.91;;;14.63;63.59
60897;BME280;46749;32.932;-117.130;2023-03-20T08:34:30;100982.16;;;14.64;63.63
60897;BME280;46749;32.932;-117.130;2023-03-20T08:36:58;100972.56;;;14.63;63.60
60897;BME280;46749;32.932;-117.130;2023-03-20T08:39:24;100975.19;;;14.63;63.61
60897;BME280;46749;32.932;-117.130;2023-03-20T08:41:50;100981.25;;;14.62;63.67
60897;BME280;46749;32.932;-117.130;2023-03-20T08:44:16;100977.75;;;14.61;63.57
60897;BME280;46749;32.932;-117.130;2023-03-20T08:46:43;100976.00;;;14.60;63.16
60897;BME280;46749;32.932;-117.130;2023-03-20T08:49:11;100962.09;;;14.61;63.67
60897;BME280;46749;32.932;-117.130;2023-03-20T08:51:37;100970.78;;;14.60;63.51
60897;BME280;46749;32.932;-117.130;2023-03-20T08:54:03;100978.66;;;14.62;63.53
60897;BME280;46749;32.932;-117.130;2023-03-20T08:56:29;100974.28;;;14.62;63.57
60897;BME280;46749;32.932;-117.130;2023-03-20T08:58:56;100976.88;;;14.61;63.87
60897;BME280;46749;32.932;-117.130;2023-03-20T09:01:22;100973.38;;;14.60;63.55
60897;BME280;46749;32.932;-117.130;2023-03-20T09:03:49;100974.25;;;14.59;63.82
60897;BME280;46749;32.932;-117.130;2023-03-20T09:06:15;100984.69;;;14.59;63.68
60897;BME280;46749;32.932;-117.130;2023-03-20T09:08:41;100984.69;;;14.59;63.65
60897;BME280;46749;32.932;-117.130;2023-03-20T09:11:07;100983.81;;;14.59;63.67
60897;BME280;46749;32.932;-117.130;2023-03-20T09:13:34;100979.41;;;14.57;63.72
60897;BME280;46749;32.932;-117.130;2023-03-20T09:16:00;100986.38;;;14.57;63.74
60897;BME280;46749;32.932;-117.130;2023-03-20T09:18:27;100988.09;;;14.56;63.69
60897;BME280;46749;32.932;-117.130;2023-03-20T09:20:53;100999.44;;;14.57;63.77
60897;BME280;46749;32.932;-117.130;2023-03-20T09:23:21;100995.06;;;14.56;63.61
60897;BME280;46749;32.932;-117.130;2023-03-20T09:25:47;100988.97;;;14.57;63.74
60897;BME280;46749;32.932;-117.130;2023-03-20T09:28:13;100984.59;;;14.56;63.68
60897;BME280;46749;32.932;-117.130;2023-03-20T09:30:40;100995.06;;;14.56;63.33
60897;BME280;46749;32.932;-117.130;2023-03-20T09:33:08;100985.47;;;14.55;63.60
60897;BME280;46749;32.932;-117.130;2023-03-20T09:35:34;100993.28;;;14.55;63.66
60897;BME280;46749;32.932;-117.130;2023-03-20T09:38:00;100979.34;;;14.54;63.68
60897;BME280;46749;32.932;-117.130;2023-03-20T09:40:51;100992.41;;;14.54;63.72
60897;BME280;46749;32.932;-117.130;2023-03-20T09:43:25;101003.75;;;14.55;63.71
60897;BME280;46749;32.932;-117.130;2023-03-20T09:48:43;101002.84;;;14.53;63.85
60897;BME280;46749;32.932;-117.130;2023-03-20T09:51:43;101005.47;;;14.53;63.72
60897;BME280;46749;32.932;-117.130;2023-03-20T09:56:42;101000.22;;;14.53;63.68
60897;BME280;46749;32.932;-117.130;2023-03-20T09:59:13;100995.84;;;14.52;63.90
60897;BME280;46749;32.932;-117.130;2023-03-20T10:01:58;101015.91;;;14.53;63.91
60897;BME280;46749;32.932;-117.130;2023-03-20T10:04:28;101014.16;;;14.52;63.60
60897;BME280;46749;32.932;-117.130;2023-03-20T10:06:55;101018.47;;;14.51;63.71
60897;BME280;46749;32.932;-117.130;2023-03-20T10:09:25;101001.91;;;14.51;63.72
60897;BME280;46749;32.932;-117.130;2023-03-20T10:12:08;101011.47;;;14.50;63.52
60897;BME280;46749;32.932;-117.130;2023-03-20T10:14:52;101001.91;;;14.51;63.65
60897;BME280;46749;32.932;-117.130;2023-03-20T10:25:50;100993.16;;;14.49;63.52
60897;BME280;46749;32.932;-117.130;2023-03-20T10:28:48;100996.63;;;14.48;63.79
60897;BME280;46749;32.932;-117.130;2023-03-20T10:31:29;100997.50;;;14.48;63.96
60897;BME280;46749;32.932;-117.130;2023-03-20T10:39:47;100988.75;;;14.46;63.74
60897;BME280;46749;32.932;-117.130;2023-03-20T10:42:19;100984.31;;;14.45;63.65
60897;BME280;46749;32.932;-117.130;2023-03-20T10:44:55;100978.19;;;14.45;63.72
60897;BME280;46749;32.932;-117.130;2023-03-20T10:47:27;100972.06;;;14.43;63.69
60897;BME280;46749;32.932;-117.130;2023-03-20T10:50:09;100983.38;;;14.43;63.48
60897;BME280;46749;32.932;-117.130;2023-03-20T10:52:40;100976.44;;;14.44;63.43
60897;BME280;46749;32.932;-117.130;2023-03-20T10:55:25;100983.38;;;14.43;63.64
60897;BME280;46749;32.932;-117.130;2023-03-20T10:58:01;100992.97;;;14.43;63.53
60897;BME280;46749;32.932;-117.130;2023-03-20T11:00:29;100998.19;;;14.43;63.73
60897;BME280;46749;32.932;-117.130;2023-03-20T11:02:55;100992.97;;;14.43;63.70
60897;BME280;46749;32.932;-117.130;2023-03-20T11:05:27;100992.97;;;14.43;63.57
60897;BME280;46749;32.932;-117.130;2023-03-20T11:08:05;100992.97;;;14.43;63.62
60897;BME280;46749;32.932;-117.130;2023-03-20T11:10:34;100985.97;;;14.42;63.89
60897;BME280;46749;32.932;-117.130;2023-03-20T11:16:33;100975.53;;;14.42;63.39
60897;BME280;46749;32.932;-117.130;2023-03-20T11:19:06;100958.09;;;14.42;63.48
60897;BME280;46749;32.932;-117.130;2023-03-20T11:21:34;100952.00;;;14.42;63.37
60897;BME280;46749;32.932;-117.130;2023-03-20T11:24:26;100956.31;;;14.40;63.50
60897;BME280;46749;32.932;-117.130;2023-03-20T11:27:16;100954.53;;;14.39;63.49
60897;BME280;46749;32.932;-117.130;2023-03-20T11:29:48;100958.94;;;14.40;63.68
60897;BME280;46749;32.932;-117.130;2023-03-20T11:32:32;100951.09;;;14.40;63.61
60897;BME280;46749;32.932;-117.130;2023-03-20T11:35:19;100958.88;;;14.38;63.39
60897;BME280;46749;32.932;-117.130;2023-03-20T11:37:50;100960.63;;;14.39;63.36
60897;BME280;46749;32.932;-117.130;2023-03-20T11:40:25;100947.53;;;14.38;63.53
60897;BME280;46749;32.932;-117.130;2023-03-20T11:45:43;100945.78;;;14.37;63.56
60897;BME280;46749;32.932;-117.130;2023-03-20T11:48:18;100937.91;;;14.35;63.51
60897;BME280;46749;32.932;-117.130;2023-03-20T11:51:02;100938.78;;;14.36;63.37
60897;BME280;46749;32.932;-117.130;2023-03-20T11:58:36;100951.84;;;14.36;63.48
60897;BME280;46749;32.932;-117.130;2023-03-20T12:01:06;100954.44;;;14.34;63.31
60897;BME280;46749;32.932;-117.130;2023-03-20T12:03:51;100951.75;;;14.32;63.40
60897;BME280;46749;32.932;-117.130;2023-03-20T12:07:14;100949.16;;;14.32;63.69
60897;BME280;46749;32.932;-117.130;2023-03-20T12:12:12;100958.72;;;14.32;63.42
60897;BME280;46749;32.932;-117.130;2023-03-20T12:25:23;100989.19;;;14.31;63.36
60897;BME280;46749;32.932;-117.130;2023-03-20T12:28:23;100982.13;;;14.27;63.29
60897;BME280;46749;32.932;-117.130;2023-03-20T12:34:05;101007.38;;;14.27;63.34
60897;BME280;46749;32.932;-117.130;2023-03-20T12:36:45;101012.59;;;14.27;63.40
60897;BME280;46749;32.932;-117.130;2023-03-20T12:39:23;101018.66;;;14.26;63.37
60897;BME280;46749;32.932;-117.130;2023-03-20T12:44:48;101020.38;;;14.25;63.32
60897;BME280;46749;32.932;-117.130;2023-03-20T12:50:34;101028.19;;;14.24;63.31
60897;BME280;46749;32.932;-117.130;2023-03-20T12:53:22;101028.16;;;14.22;63.34
60897;BME280;46749;32.932;-117.130;2023-03-20T12:59:23;101022.03;;;14.22;63.38
60897;BME280;46749;32.932;-117.130;2023-03-20T13:02:55;101021.97;;;14.20;63.27
60897;BME280;46749;32.932;-117.130;2023-03-20T13:05:26;101025.50;;;14.21;63.32
60897;BME280;46749;32.932;-117.130;2023-03-20T13:10:48;101028.91;;;14.18;62.90
60897;BME280;46749;32.932;-117.130;2023-03-20T13:13:29;101021.91;;;14.17;63.43
60897;BME280;46749;32.932;-117.130;2023-03-20T13:16:08;101022.78;;;14.16;63.34
60897;BME280;46749;32.932;-117.130;2023-03-20T13:18:58;101021.91;;;14.17;63.25
60897;BME280;46749;32.932;-117.130;2023-03-20T13:24:35;101030.59;;;14.16;63.19
60897;BME280;46749;32.932;-117.130;2023-03-20T13:27:32;101025.38;;;14.16;63.31
60897;BME280;46749;32.932;-117.130;2023-03-20T13:39:05;101056.63;;;14.13;63.10
60897;BME280;46749;32.932;-117.130;2023-03-20T13:41:35;101053.19;;;14.14;63.19
60897;BME280;46749;32.932;-117.130;2023-03-20T13:44:04;101060.19;;;14.15;63.15
60897;BME280;46749;32.932;-117.130;2023-03-20T13:46:53;101065.44;;;14.17;63.22
60897;BME280;46749;32.932;-117.130;2023-03-20T13:49:24;101048.94;;;14.19;63.27
60897;BME280;46749;32.932;-117.130;2023-03-20T13:52:07;101059.47;;;14.21;63.15
60897;BME280;46749;32.932;-117.130;2023-03-20T13:55:07;101055.13;;;14.21;63.34
60897;BME280;46749;32.932;-117.130;2023-03-20T14:01:51;101054.25;;;14.21;63.38
60897;BME280;46749;32.932;-117.130;2023-03-20T14:03:47;101035.97;;;14.21;63.50
60897;BME280;46749;32.932;-117.130;2023-03-20T14:08:56;101041.25;;;14.24;63.41
60897;BME280;46749;32.932;-117.130;2023-03-20T14:13:58;101051.66;;;14.22;63.46
60897;BME280;46749;32.932;-117.130;2023-03-20T14:16:28;101058.66;;;14.23;63.50
60897;BME280;46749;32.932;-117.130;2023-03-20T14:19:28;101066.38;;;14.20;63.48
60897;BME280;46749;32.932;-117.130;2023-03-20T14:21:56;101069.91;;;14.21;63.47
60897;BME280;46749;32.932;-117.130;2023-03-20T14:24:26;101063.78;;;14.20;63.59
60897;BME280;46749;32.932;-117.130;2023-03-20T14:26:58;101061.13;;;14.19;63.54
60897;BME280;46749;32.932;-117.130;2023-03-20T14:34:47;101066.31;;;14.17;63.38
60897;BME280;46749;32.932;-117.130;2023-03-20T14:42:58;101066.28;;;14.16;63.30
60897;BME280;46749;32.932;-117.130;2023-03-20T14:48:21;101049.78;;;14.17;63.39
60897;BME280;46749;32.932;-117.130;2023-03-20T14:54:21;101041.13;;;14.19;63.39
60897;BME280;46749;32.932;-117.130;2023-03-20T14:56:44;101037.66;;;14.20;63.17
60897;BME280;46749;32.932;-117.130;2023-03-20T14:59:11;101035.00;;;14.19;63.37
60897;BME280;46749;32.932;-117.130;2023-03-20T15:06:46;101037.53;;;14.14;63.66
60897;BME280;46749;32.932;-117.130;2023-03-20T15:09:13;101045.41;;;14.16;63.20
60897;BME280;46749;32.932;-117.130;2023-03-20T15:11:42;101053.19;;;14.14;63.49
60897;BME280;46749;32.932;-117.130;2023-03-20T15:14:09;101057.56;;;14.15;63.49
60897;BME280;46749;32.932;-117.130;2023-03-20T15:16:36;101075.84;;;14.15;63.76
60897;BME280;46749;32.932;-117.130;2023-03-20T15:19:17;101078.50;;;14.17;63.43